West Somerset, Kentucky
Current Conditions -  °F | °C
As of 12:35 PM on Tuesday 21 Oct 2014 (Local Time) from KSME Reporting Station
Overcast Overcast  
Wind Chill: 59°   Ceiling: 5500
Heat Index: 59°   Visibility: 10mi
Dew Point: 43°   Wind: 8mph
Humidity: 55%   Direction: 350°N
Pressure: 30.07"   Gusts: NA
Location:  37.09°N, 84.6°W
Report Text: KSME 211635Z AUTO 35007KT 10SM SCT041 OVC055 15/06 A3007 RMK AO2
Loading
Personal Weather Stations






























Interactive Weather Map
Tropical Storm Tracking
New forecast layout! Learn more

10-Day Weather Forecast

Advertisements
Track Severe Weather on mobile